Overview Statistics Trail Chart Weather Telemetry Raw packets
 

This is the latest recevied weather packets stored in our database for station/object K6POO-1. If no packets are shown the sender has not sent any weather packets the latest 10 day(s).

<< 46 47 48 49 50 51 52 >>
Time Temp. Humidity Pressure Rain* Wind** Luminosity Snow
1788370974 20.56° C 72% 1017.7 hPa 0 mm - 267 W/m² -
1788370669 20° C 72% 1017.7 hPa 0 mm - 459 W/m² -
1788370368 20.56° C 72% 1017.5 hPa 0 mm - 277 W/m² -
1788370063 20° C 73% 1017.5 hPa 0 mm - 439 W/m² -
1788369758 20° C 73% 1017.2 hPa 0 mm - 215 W/m² -
1788369453 20° C 75% 1017.2 hPa 0 mm - 336 W/m² -
1788369148 19.44° C 75% 1017.2 hPa 0 mm - 263 W/m² -
1788368844 20° C 76% 1017.4 hPa 0 mm - 335 W/m² -
1788368539 19.44° C 76% 1017.4 hPa 0 mm - 324 W/m² -
1788368234 19.44° C 77% 1017.2 hPa 0 mm - 309 W/m² -
1788367929 18.89° C 77% 1017.5 hPa 0 mm - 349 W/m² -
1788367628 18.89° C 77% 1017.2 hPa 0 mm - 260 W/m² -
1788367323 18.89° C 77% 1017.1 hPa 0 mm - 159 W/m² -
1788367018 18.89° C 77% 1017.3 hPa 0 mm - 151 W/m² -
1788366718 18.89° C 77% 1017.3 hPa 0 mm - 154 W/m² -
1788366416 18.89° C 77% 1017.3 hPa 0 mm - 206 W/m² -
1788366110 18.89° C 77% 1017.3 hPa 0 mm - 130 W/m² -
1788365806 18.89° C 77% 1017.4 hPa 0 mm - 113 W/m² -
1788365502 18.89° C 77% 1017.3 hPa 0 mm - 146 W/m² -
1788365198 18.89° C 77% 1017.3 hPa 0 mm - 125 W/m² -
1788364893 18.89° C 76% 1017.3 hPa 0 mm - 96 W/m² -
1788364591 18.89° C 76% 1017.2 hPa 0 mm - 107 W/m² -
1788364290 18.33° C 76% 1017.2 hPa 0 mm - 139 W/m² -
1788363985 18.33° C 75% 1017.3 hPa 0 mm - 141 W/m² -
1788363680 18.33° C 76% 1017.3 hPa 0 mm - 106 W/m² -

* Rain latest hour (hover to see other rain measurements)
** Current wind speed in m/s (hover to see current wind gust speed)